sensor_id;sensor_type;location;lat;lon;timestamp;P1;durP1;ratioP1;P2;durP2;ratioP2
57720;SDS011;43562;43.064;0.160;2023-06-14T00:01:51;5.25;;;4.82;;
57720;SDS011;43562;43.064;0.160;2023-06-14T00:04:17;5.65;;;5.15;;
57720;SDS011;43562;43.064;0.160;2023-06-14T00:06:45;4.43;;;4.03;;
57720;SDS011;43562;43.064;0.160;2023-06-14T00:09:13;8.85;;;4.90;;
57720;SDS011;43562;43.064;0.160;2023-06-14T00:11:40;9.70;;;4.55;;
57720;SDS011;43562;43.064;0.160;2023-06-14T00:14:06;5.00;;;4.60;;
57720;SDS011;43562;43.064;0.160;2023-06-14T00:16:33;4.60;;;4.30;;
57720;SDS011;43562;43.064;0.160;2023-06-14T00:19:00;7.07;;;4.97;;
57720;SDS011;43562;43.064;0.160;2023-06-14T00:21:28;5.78;;;4.90;;
57720;SDS011;43562;43.064;0.160;2023-06-14T00:23:55;5.93;;;5.30;;
57720;SDS011;43562;43.064;0.160;2023-06-14T00:26:21;7.80;;;4.50;;
57720;SDS011;43562;43.064;0.160;2023-06-14T00:28:47;5.25;;;4.85;;
57720;SDS011;43562;43.064;0.160;2023-06-14T00:31:13;6.93;;;4.60;;
57720;SDS011;43562;43.064;0.160;2023-06-14T00:33:39;4.93;;;4.47;;
57720;SDS011;43562;43.064;0.160;2023-06-14T00:36:05;5.97;;;4.60;;
57720;SDS011;43562;43.064;0.160;2023-06-14T00:38:31;4.35;;;3.92;;
57720;SDS011;43562;43.064;0.160;2023-06-14T00:40:57;5.20;;;4.80;;
57720;SDS011;43562;43.064;0.160;2023-06-14T00:43:23;4.45;;;4.15;;
57720;SDS011;43562;43.064;0.160;2023-06-14T00:45:50;4.47;;;4.07;;
57720;SDS011;43562;43.064;0.160;2023-06-14T00:48:16;5.43;;;3.90;;
57720;SDS011;43562;43.064;0.160;2023-06-14T00:50:43;6.13;;;3.72;;
57720;SDS011;43562;43.064;0.160;2023-06-14T00:53:11;4.57;;;4.20;;
57720;SDS011;43562;43.064;0.160;2023-06-14T00:55:37;4.35;;;4.05;;
57720;SDS011;43562;43.064;0.160;2023-06-14T00:58:03;4.78;;;4.47;;
57720;SDS011;43562;43.064;0.160;2023-06-14T01:00:29;4.82;;;4.35;;
57720;SDS011;43562;43.064;0.160;2023-06-14T01:02:55;5.22;;;4.93;;
57720;SDS011;43562;43.064;0.160;2023-06-14T01:05:22;4.57;;;4.20;;
57720;SDS011;43562;43.064;0.160;2023-06-14T01:15:37;5.70;;;5.20;;
57720;SDS011;43562;43.064;0.160;2023-06-14T01:18:04;5.32;;;4.72;;
57720;SDS011;43562;43.064;0.160;2023-06-14T01:20:31;5.18;;;4.55;;
57720;SDS011;43562;43.064;0.160;2023-06-14T01:22:58;4.90;;;4.53;;
57720;SDS011;43562;43.064;0.160;2023-06-14T01:25:24;5.68;;;4.25;;
57720;SDS011;43562;43.064;0.160;2023-06-14T01:27:52;5.75;;;4.28;;
57720;SDS011;43562;43.064;0.160;2023-06-14T01:30:20;5.28;;;4.78;;
57720;SDS011;43562;43.064;0.160;2023-06-14T01:32:46;5.18;;;4.70;;
57720;SDS011;43562;43.064;0.160;2023-06-14T01:35:13;5.20;;;4.90;;
57720;SDS011;43562;43.064;0.160;2023-06-14T01:37:39;5.43;;;5.00;;
57720;SDS011;43562;43.064;0.160;2023-06-14T01:40:06;4.30;;;3.90;;
57720;SDS011;43562;43.064;0.160;2023-06-14T01:42:36;5.03;;;4.40;;
57720;SDS011;43562;43.064;0.160;2023-06-14T01:45:04;5.05;;;4.35;;
57720;SDS011;43562;43.064;0.160;2023-06-14T01:47:31;4.32;;;4.03;;
57720;SDS011;43562;43.064;0.160;2023-06-14T01:49:57;4.28;;;4.05;;
57720;SDS011;43562;43.064;0.160;2023-06-14T01:52:23;4.75;;;4.38;;
57720;SDS011;43562;43.064;0.160;2023-06-14T01:54:49;6.65;;;4.18;;
57720;SDS011;43562;43.064;0.160;2023-06-14T01:57:16;4.90;;;4.47;;
57720;SDS011;43562;43.064;0.160;2023-06-14T01:59:42;4.53;;;4.32;;
57720;SDS011;43562;43.064;0.160;2023-06-14T02:02:13;5.35;;;4.32;;
57720;SDS011;43562;43.064;0.160;2023-06-14T02:04:39;6.88;;;4.45;;
57720;SDS011;43562;43.064;0.160;2023-06-14T02:07:05;4.72;;;4.25;;
57720;SDS011;43562;43.064;0.160;2023-06-14T02:09:31;4.72;;;4.43;;
57720;SDS011;43562;43.064;0.160;2023-06-14T02:11:57;4.50;;;4.20;;
57720;SDS011;43562;43.064;0.160;2023-06-14T02:14:23;3.70;;;3.40;;
57720;SDS011;43562;43.064;0.160;2023-06-14T02:16:50;4.30;;;3.90;;
57720;SDS011;43562;43.064;0.160;2023-06-14T02:19:16;7.32;;;4.25;;
57720;SDS011;43562;43.064;0.160;2023-06-14T02:21:42;6.22;;;4.53;;
57720;SDS011;43562;43.064;0.160;2023-06-14T02:24:08;5.30;;;3.88;;
57720;SDS011;43562;43.064;0.160;2023-06-14T02:26:35;4.75;;;4.45;;
57720;SDS011;43562;43.064;0.160;2023-06-14T02:29:03;4.43;;;4.03;;
57720;SDS011;43562;43.064;0.160;2023-06-14T02:31:30;6.45;;;5.57;;
57720;SDS011;43562;43.064;0.160;2023-06-14T02:33:56;4.30;;;4.00;;
57720;SDS011;43562;43.064;0.160;2023-06-14T02:36:22;4.28;;;3.97;;
57720;SDS011;43562;43.064;0.160;2023-06-14T02:38:49;3.95;;;3.65;;
57720;SDS011;43562;43.064;0.160;2023-06-14T02:41:15;3.45;;;3.25;;
57720;SDS011;43562;43.064;0.160;2023-06-14T02:43:41;3.72;;;3.42;;
57720;SDS011;43562;43.064;0.160;2023-06-14T02:46:07;5.70;;;3.72;;
57720;SDS011;43562;43.064;0.160;2023-06-14T02:48:33;6.28;;;3.72;;
57720;SDS011;43562;43.064;0.160;2023-06-14T02:50:59;3.92;;;3.63;;
57720;SDS011;43562;43.064;0.160;2023-06-14T02:53:25;5.55;;;3.75;;
57720;SDS011;43562;43.064;0.160;2023-06-14T02:55:52;5.35;;;3.70;;
57720;SDS011;43562;43.064;0.160;2023-06-14T02:58:20;4.18;;;3.88;;
57720;SDS011;43562;43.064;0.160;2023-06-14T03:00:46;7.68;;;4.32;;
57720;SDS011;43562;43.064;0.160;2023-06-14T03:03:12;3.92;;;3.63;;
57720;SDS011;43562;43.064;0.160;2023-06-14T03:05:44;5.70;;;3.40;;
57720;SDS011;43562;43.064;0.160;2023-06-14T03:08:15;4.03;;;3.70;;
57720;SDS011;43562;43.064;0.160;2023-06-14T03:10:44;3.60;;;3.40;;
57720;SDS011;43562;43.064;0.160;2023-06-14T03:13:10;6.15;;;4.20;;
57720;SDS011;43562;43.064;0.160;2023-06-14T03:15:37;5.00;;;3.88;;
57720;SDS011;43562;43.064;0.160;2023-06-14T03:18:03;7.53;;;3.90;;
57720;SDS011;43562;43.064;0.160;2023-06-14T03:20:30;3.92;;;3.72;;
57720;SDS011;43562;43.064;0.160;2023-06-14T03:23:01;3.85;;;3.60;;
57720;SDS011;43562;43.064;0.160;2023-06-14T03:25:28;4.15;;;3.78;;
57720;SDS011;43562;43.064;0.160;2023-06-14T03:27:55;5.03;;;3.47;;
57720;SDS011;43562;43.064;0.160;2023-06-14T03:30:21;4.95;;;3.35;;
57720;SDS011;43562;43.064;0.160;2023-06-14T03:32:47;6.05;;;3.25;;
57720;SDS011;43562;43.064;0.160;2023-06-14T03:35:13;24.40;;;4.00;;
57720;SDS011;43562;43.064;0.160;2023-06-14T03:37:43;4.28;;;3.58;;
57720;SDS011;43562;43.064;0.160;2023-06-14T03:40:09;5.10;;;3.50;;
57720;SDS011;43562;43.064;0.160;2023-06-14T03:42:36;4.82;;;3.83;;
57720;SDS011;43562;43.064;0.160;2023-06-14T03:45:02;4.25;;;3.83;;
57720;SDS011;43562;43.064;0.160;2023-06-14T03:47:28;21.33;;;4.13;;
57720;SDS011;43562;43.064;0.160;2023-06-14T03:49:54;3.85;;;3.55;;
57720;SDS011;43562;43.064;0.160;2023-06-14T03:52:20;3.30;;;2.95;;
57720;SDS011;43562;43.064;0.160;2023-06-14T03:54:48;5.07;;;3.53;;
57720;SDS011;43562;43.064;0.160;2023-06-14T03:57:14;4.47;;;3.95;;
57720;SDS011;43562;43.064;0.160;2023-06-14T03:59:41;3.60;;;3.40;;
57720;SDS011;43562;43.064;0.160;2023-06-14T04:02:07;3.42;;;3.17;;
57720;SDS011;43562;43.064;0.160;2023-06-14T04:04:34;4.35;;;3.40;;
57720;SDS011;43562;43.064;0.160;2023-06-14T04:07:01;5.70;;;3.60;;
57720;SDS011;43562;43.064;0.160;2023-06-14T04:09:31;3.80;;;3.60;;
57720;SDS011;43562;43.064;0.160;2023-06-14T04:11:57;4.13;;;3.78;;
57720;SDS011;43562;43.064;0.160;2023-06-14T04:14:23;5.63;;;3.40;;
57720;SDS011;43562;43.064;0.160;2023-06-14T04:16:49;3.83;;;3.63;;
57720;SDS011;43562;43.064;0.160;2023-06-14T04:19:16;3.75;;;3.55;;
57720;SDS011;43562;43.064;0.160;2023-06-14T04:21:42;3.88;;;3.58;;
57720;SDS011;43562;43.064;0.160;2023-06-14T04:24:08;3.78;;;3.42;;
57720;SDS011;43562;43.064;0.160;2023-06-14T04:26:40;9.82;;;4.03;;
57720;SDS011;43562;43.064;0.160;2023-06-14T04:29:09;9.52;;;4.40;;
57720;SDS011;43562;43.064;0.160;2023-06-14T04:31:42;7.90;;;4.88;;
57720;SDS011;43562;43.064;0.160;2023-06-14T04:34:09;5.78;;;5.20;;
57720;SDS011;43562;43.064;0.160;2023-06-14T04:36:41;4.63;;;4.32;;
57720;SDS011;43562;43.064;0.160;2023-06-14T04:39:17;5.50;;;5.20;;
57720;SDS011;43562;43.064;0.160;2023-06-14T04:41:43;5.50;;;5.00;;
57720;SDS011;43562;43.064;0.160;2023-06-14T04:44:09;5.82;;;5.43;;
57720;SDS011;43562;43.064;0.160;2023-06-14T04:46:36;6.55;;;5.20;;
57720;SDS011;43562;43.064;0.160;2023-06-14T04:49:17;8.75;;;5.78;;
57720;SDS011;43562;43.064;0.160;2023-06-14T04:51:44;5.45;;;4.60;;
57720;SDS011;43562;43.064;0.160;2023-06-14T04:54:11;5.13;;;4.82;;
57720;SDS011;43562;43.064;0.160;2023-06-14T04:56:41;6.35;;;4.88;;
57720;SDS011;43562;43.064;0.160;2023-06-14T04:59:07;23.33;;;5.25;;
57720;SDS011;43562;43.064;0.160;2023-06-14T05:01:34;6.25;;;4.85;;
57720;SDS011;43562;43.064;0.160;2023-06-14T05:04:00;4.20;;;4.00;;
57720;SDS011;43562;43.064;0.160;2023-06-14T05:06:26;5.03;;;4.63;;
57720;SDS011;43562;43.064;0.160;2023-06-14T05:08:53;5.25;;;4.28;;
57720;SDS011;43562;43.064;0.160;2023-06-14T05:11:19;4.13;;;3.92;;
57720;SDS011;43562;43.064;0.160;2023-06-14T05:13:45;4.00;;;3.80;;
57720;SDS011;43562;43.064;0.160;2023-06-14T05:16:12;6.68;;;6.38;;
57720;SDS011;43562;43.064;0.160;2023-06-14T05:18:38;6.15;;;5.75;;
57720;SDS011;43562;43.064;0.160;2023-06-14T05:21:05;7.38;;;6.88;;
57720;SDS011;43562;43.064;0.160;2023-06-14T05:23:31;6.68;;;6.07;;
57720;SDS011;43562;43.064;0.160;2023-06-14T05:25:57;6.63;;;6.10;;
57720;SDS011;43562;43.064;0.160;2023-06-14T05:28:24;7.60;;;7.20;;
57720;SDS011;43562;43.064;0.160;2023-06-14T05:30:50;6.28;;;5.88;;
57720;SDS011;43562;43.064;0.160;2023-06-14T05:33:16;7.00;;;6.30;;
57720;SDS011;43562;43.064;0.160;2023-06-14T05:35:42;7.05;;;6.55;;
57720;SDS011;43562;43.064;0.160;2023-06-14T05:38:09;7.55;;;6.95;;
57720;SDS011;43562;43.064;0.160;2023-06-14T05:40:35;7.30;;;6.20;;
57720;SDS011;43562;43.064;0.160;2023-06-14T05:43:01;7.53;;;7.05;;
57720;SDS011;43562;43.064;0.160;2023-06-14T05:45:27;7.13;;;6.63;;
57720;SDS011;43562;43.064;0.160;2023-06-14T05:47:53;6.82;;;6.32;;
57720;SDS011;43562;43.064;0.160;2023-06-14T05:50:22;6.05;;;5.65;;
57720;SDS011;43562;43.064;0.160;2023-06-14T05:52:48;6.25;;;5.85;;
57720;SDS011;43562;43.064;0.160;2023-06-14T05:55:15;7.60;;;7.13;;
57720;SDS011;43562;43.064;0.160;2023-06-14T05:57:42;6.97;;;6.40;;
57720;SDS011;43562;43.064;0.160;2023-06-14T06:00:08;7.22;;;6.30;;
57720;SDS011;43562;43.064;0.160;2023-06-14T06:02:44;8.07;;;7.13;;
57720;SDS011;43562;43.064;0.160;2023-06-14T06:05:12;6.25;;;5.75;;
57720;SDS011;43562;43.064;0.160;2023-06-14T06:07:39;6.72;;;6.25;;
57720;SDS011;43562;43.064;0.160;2023-06-14T06:10:05;7.13;;;5.85;;
57720;SDS011;43562;43.064;0.160;2023-06-14T06:12:32;6.63;;;5.90;;
57720;SDS011;43562;43.064;0.160;2023-06-14T06:14:58;7.07;;;5.30;;
57720;SDS011;43562;43.064;0.160;2023-06-14T06:17:25;6.55;;;6.05;;
57720;SDS011;43562;43.064;0.160;2023-06-14T06:19:51;5.13;;;4.82;;
57720;SDS011;43562;43.064;0.160;2023-06-14T06:22:18;5.45;;;5.07;;
57720;SDS011;43562;43.064;0.160;2023-06-14T06:24:44;4.95;;;4.55;;
57720;SDS011;43562;43.064;0.160;2023-06-14T06:27:10;5.55;;;5.00;;
57720;SDS011;43562;43.064;0.160;2023-06-14T06:29:37;5.57;;;5.25;;
57720;SDS011;43562;43.064;0.160;2023-06-14T06:32:04;5.90;;;5.50;;
57720;SDS011;43562;43.064;0.160;2023-06-14T06:34:30;5.45;;;5.07;;
57720;SDS011;43562;43.064;0.160;2023-06-14T06:36:56;7.43;;;5.40;;
57720;SDS011;43562;43.064;0.160;2023-06-14T06:39:22;5.97;;;5.57;;
57720;SDS011;43562;43.064;0.160;2023-06-14T06:41:48;5.80;;;5.40;;
57720;SDS011;43562;43.064;0.160;2023-06-14T06:44:14;6.50;;;5.88;;
57720;SDS011;43562;43.064;0.160;2023-06-14T06:46:40;4.85;;;4.55;;
57720;SDS011;43562;43.064;0.160;2023-06-14T06:49:07;5.95;;;5.45;;
57720;SDS011;43562;43.064;0.160;2023-06-14T06:51:34;5.88;;;5.57;;
57720;SDS011;43562;43.064;0.160;2023-06-14T06:54:02;5.40;;;4.90;;
57720;SDS011;43562;43.064;0.160;2023-06-14T06:56:28;5.57;;;5.18;;
57720;SDS011;43562;43.064;0.160;2023-06-14T06:58:54;5.68;;;5.28;;
57720;SDS011;43562;43.064;0.160;2023-06-14T07:01:20;5.82;;;5.43;;
57720;SDS011;43562;43.064;0.160;2023-06-14T07:03:47;5.43;;;4.93;;
57720;SDS011;43562;43.064;0.160;2023-06-14T07:06:13;5.50;;;5.10;;
57720;SDS011;43562;43.064;0.160;2023-06-14T07:08:39;5.07;;;4.65;;
57720;SDS011;43562;43.064;0.160;2023-06-14T07:11:05;5.00;;;4.55;;
57720;SDS011;43562;43.064;0.160;2023-06-14T07:13:32;6.20;;;5.00;;
57720;SDS011;43562;43.064;0.160;2023-06-14T07:15:58;5.55;;;5.10;;
57720;SDS011;43562;43.064;0.160;2023-06-14T07:18:28;5.70;;;4.50;;
57720;SDS011;43562;43.064;0.160;2023-06-14T07:20:54;5.80;;;5.28;;
57720;SDS011;43562;43.064;0.160;2023-06-14T07:23:21;4.57;;;4.18;;
57720;SDS011;43562;43.064;0.160;2023-06-14T07:25:47;5.28;;;4.88;;
57720;SDS011;43562;43.064;0.160;2023-06-14T07:28:13;5.78;;;5.28;;
57720;SDS011;43562;43.064;0.160;2023-06-14T07:30:39;5.00;;;4.60;;
57720;SDS011;43562;43.064;0.160;2023-06-14T07:33:05;6.72;;;6.22;;
57720;SDS011;43562;43.064;0.160;2023-06-14T07:35:33;7.22;;;6.05;;
57720;SDS011;43562;43.064;0.160;2023-06-14T07:37:59;6.22;;;5.63;;
57720;SDS011;43562;43.064;0.160;2023-06-14T07:40:25;7.93;;;6.93;;
57720;SDS011;43562;43.064;0.160;2023-06-14T07:42:52;7.68;;;6.97;;
57720;SDS011;43562;43.064;0.160;2023-06-14T07:45:19;7.50;;;6.90;;
57720;SDS011;43562;43.064;0.160;2023-06-14T07:47:45;9.88;;;7.18;;
57720;SDS011;43562;43.064;0.160;2023-06-14T07:50:12;6.80;;;6.20;;
57720;SDS011;43562;43.064;0.160;2023-06-14T07:52:38;5.22;;;4.70;;
57720;SDS011;43562;43.064;0.160;2023-06-14T07:55:05;6.35;;;5.75;;
57720;SDS011;43562;43.064;0.160;2023-06-14T07:57:31;6.13;;;5.57;;
57720;SDS011;43562;43.064;0.160;2023-06-14T07:59:57;7.72;;;5.88;;
57720;SDS011;43562;43.064;0.160;2023-06-14T08:02:23;5.93;;;5.47;;
57720;SDS011;43562;43.064;0.160;2023-06-14T08:04:49;5.63;;;5.13;;
57720;SDS011;43562;43.064;0.160;2023-06-14T08:07:15;9.02;;;5.03;;
57720;SDS011;43562;43.064;0.160;2023-06-14T08:09:42;5.20;;;4.70;;
57720;SDS011;43562;43.064;0.160;2023-06-14T08:12:08;5.50;;;5.10;;
57720;SDS011;43562;43.064;0.160;2023-06-14T08:14:37;5.75;;;5.20;;
57720;SDS011;43562;43.064;0.160;2023-06-14T08:17:03;5.53;;;5.15;;
57720;SDS011;43562;43.064;0.160;2023-06-14T08:19:29;5.50;;;5.10;;
57720;SDS011;43562;43.064;0.160;2023-06-14T08:21:56;6.75;;;6.25;;
57720;SDS011;43562;43.064;0.160;2023-06-14T08:24:22;7.53;;;6.80;;
57720;SDS011;43562;43.064;0.160;2023-06-14T08:26:54;7.35;;;6.68;;
57720;SDS011;43562;43.064;0.160;2023-06-14T08:29:21;8.30;;;7.35;;
57720;SDS011;43562;43.064;0.160;2023-06-14T08:31:47;6.38;;;5.78;;
57720;SDS011;43562;43.064;0.160;2023-06-14T08:34:13;7.65;;;7.05;;
57720;SDS011;43562;43.064;0.160;2023-06-14T08:36:39;7.88;;;7.07;;
57720;SDS011;43562;43.064;0.160;2023-06-14T08:39:06;7.72;;;6.20;;
57720;SDS011;43562;43.064;0.160;2023-06-14T08:41:34;7.40;;;6.78;;
57720;SDS011;43562;43.064;0.160;2023-06-14T08:44:00;6.30;;;5.70;;
57720;SDS011;43562;43.064;0.160;2023-06-14T08:46:26;9.27;;;7.38;;
57720;SDS011;43562;43.064;0.160;2023-06-14T08:48:55;9.85;;;9.15;;
57720;SDS011;43562;43.064;0.160;2023-06-14T08:51:25;8.18;;;6.38;;
57720;SDS011;43562;43.064;0.160;2023-06-14T08:53:53;7.40;;;5.85;;
57720;SDS011;43562;43.064;0.160;2023-06-14T08:56:25;7.70;;;6.90;;
57720;SDS011;43562;43.064;0.160;2023-06-14T08:58:52;9.77;;;7.63;;
57720;SDS011;43562;43.064;0.160;2023-06-14T09:01:19;9.10;;;5.95;;
57720;SDS011;43562;43.064;0.160;2023-06-14T09:03:46;11.68;;;7.63;;
57720;SDS011;43562;43.064;0.160;2023-06-14T09:06:14;8.15;;;6.95;;
57720;SDS011;43562;43.064;0.160;2023-06-14T09:08:44;9.52;;;7.63;;
57720;SDS011;43562;43.064;0.160;2023-06-14T09:11:11;12.02;;;7.45;;
57720;SDS011;43562;43.064;0.160;2023-06-14T09:13:38;8.38;;;7.57;;
57720;SDS011;43562;43.064;0.160;2023-06-14T09:16:05;7.63;;;6.93;;
57720;SDS011;43562;43.064;0.160;2023-06-14T09:18:37;8.13;;;7.32;;
57720;SDS011;43562;43.064;0.160;2023-06-14T09:21:07;9.25;;;8.32;;
57720;SDS011;43562;43.064;0.160;2023-06-14T09:23:43;9.75;;;7.43;;
57720;SDS011;43562;43.064;0.160;2023-06-14T09:26:10;11.40;;;7.15;;
57720;SDS011;43562;43.064;0.160;2023-06-14T09:28:40;13.52;;;8.02;;
57720;SDS011;43562;43.064;0.160;2023-06-14T09:31:08;7.97;;;7.18;;
57720;SDS011;43562;43.064;0.160;2023-06-14T09:33:34;10.35;;;9.18;;
57720;SDS011;43562;43.064;0.160;2023-06-14T09:36:01;8.77;;;7.88;;
57720;SDS011;43562;43.064;0.160;2023-06-14T09:38:27;9.07;;;7.55;;
57720;SDS011;43562;43.064;0.160;2023-06-14T09:40:55;9.48;;;8.00;;
57720;SDS011;43562;43.064;0.160;2023-06-14T09:43:22;8.70;;;7.32;;
57720;SDS011;43562;43.064;0.160;2023-06-14T09:45:48;9.15;;;7.03;;
57720;SDS011;43562;43.064;0.160;2023-06-14T09:48:14;12.02;;;8.38;;
57720;SDS011;43562;43.064;0.160;2023-06-14T09:50:44;9.73;;;8.73;;
57720;SDS011;43562;43.064;0.160;2023-06-14T09:53:11;13.65;;;9.13;;
57720;SDS011;43562;43.064;0.160;2023-06-14T09:55:38;9.95;;;8.05;;
57720;SDS011;43562;43.064;0.160;2023-06-14T09:58:06;12.70;;;8.88;;
57720;SDS011;43562;43.064;0.160;2023-06-14T10:00:33;10.98;;;9.50;;
57720;SDS011;43562;43.064;0.160;2023-06-14T10:03:06;17.13;;;15.38;;
57720;SDS011;43562;43.064;0.160;2023-06-14T10:05:36;11.68;;;10.38;;
57720;SDS011;43562;43.064;0.160;2023-06-14T10:08:08;14.90;;;11.23;;
57720;SDS011;43562;43.064;0.160;2023-06-14T10:10:34;13.43;;;12.02;;
57720;SDS011;43562;43.064;0.160;2023-06-14T10:13:00;13.75;;;11.25;;
57720;SDS011;43562;43.064;0.160;2023-06-14T10:15:38;13.60;;;10.65;;
57720;SDS011;43562;43.064;0.160;2023-06-14T10:18:22;13.60;;;11.23;;
57720;SDS011;43562;43.064;0.160;2023-06-14T10:21:04;44.80;;;26.60;;
57720;SDS011;43562;43.064;0.160;2023-06-14T10:23:34;13.85;;;11.82;;
57720;SDS011;43562;43.064;0.160;2023-06-14T10:26:02;14.30;;;12.05;;
57720;SDS011;43562;43.064;0.160;2023-06-14T10:28:28;11.80;;;9.93;;
57720;SDS011;43562;43.064;0.160;2023-06-14T10:33:25;13.75;;;10.63;;
57720;SDS011;43562;43.064;0.160;2023-06-14T10:36:06;12.63;;;10.30;;
57720;SDS011;43562;43.064;0.160;2023-06-14T10:38:32;12.32;;;11.02;;
57720;SDS011;43562;43.064;0.160;2023-06-14T10:41:00;11.48;;;10.18;;
57720;SDS011;43562;43.064;0.160;2023-06-14T10:43:26;12.82;;;9.13;;
57720;SDS011;43562;43.064;0.160;2023-06-14T10:46:12;10.27;;;9.32;;
57720;SDS011;43562;43.064;0.160;2023-06-14T10:48:41;12.40;;;9.68;;
57720;SDS011;43562;43.064;0.160;2023-06-14T10:51:18;9.82;;;8.82;;
57720;SDS011;43562;43.064;0.160;2023-06-14T10:53:49;10.13;;;8.20;;
57720;SDS011;43562;43.064;0.160;2023-06-14T10:56:29;10.90;;;9.80;;
57720;SDS011;43562;43.064;0.160;2023-06-14T10:58:58;10.77;;;9.07;;
57720;SDS011;43562;43.064;0.160;2023-06-14T11:01:31;8.65;;;7.57;;
57720;SDS011;43562;43.064;0.160;2023-06-14T11:04:00;10.27;;;8.52;;
57720;SDS011;43562;43.064;0.160;2023-06-14T11:06:36;10.30;;;9.27;;
57720;SDS011;43562;43.064;0.160;2023-06-14T11:11:57;11.57;;;9.68;;
57720;SDS011;43562;43.064;0.160;2023-06-14T11:14:23;10.70;;;9.35;;
57720;SDS011;43562;43.064;0.160;2023-06-14T11:16:50;9.90;;;7.82;;
57720;SDS011;43562;43.064;0.160;2023-06-14T11:19:16;8.15;;;7.35;;
57720;SDS011;43562;43.064;0.160;2023-06-14T11:21:42;8.52;;;7.03;;
57720;SDS011;43562;43.064;0.160;2023-06-14T11:24:11;7.90;;;7.10;;
57720;SDS011;43562;43.064;0.160;2023-06-14T11:26:37;13.77;;;7.35;;
57720;SDS011;43562;43.064;0.160;2023-06-14T11:29:04;9.32;;;7.78;;
57720;SDS011;43562;43.064;0.160;2023-06-14T11:31:30;8.82;;;7.80;;
57720;SDS011;43562;43.064;0.160;2023-06-14T11:33:57;8.38;;;7.35;;
57720;SDS011;43562;43.064;0.160;2023-06-14T11:36:26;7.00;;;6.30;;
57720;SDS011;43562;43.064;0.160;2023-06-14T11:41:25;7.80;;;7.05;;
57720;SDS011;43562;43.064;0.160;2023-06-14T11:43:54;7.22;;;6.53;;
57720;SDS011;43562;43.064;0.160;2023-06-14T11:46:20;9.20;;;7.72;;
57720;SDS011;43562;43.064;0.160;2023-06-14T11:48:49;9.55;;;7.47;;
57720;SDS011;43562;43.064;0.160;2023-06-14T11:51:15;7.28;;;6.57;;
57720;SDS011;43562;43.064;0.160;2023-06-14T11:53:42;8.38;;;6.75;;
57720;SDS011;43562;43.064;0.160;2023-06-14T11:56:08;8.98;;;8.07;;
57720;SDS011;43562;43.064;0.160;2023-06-14T11:58:34;8.40;;;7.55;;
57720;SDS011;43562;43.064;0.160;2023-06-14T12:01:02;10.30;;;6.93;;
57720;SDS011;43562;43.064;0.160;2023-06-14T12:03:28;8.32;;;7.45;;
57720;SDS011;43562;43.064;0.160;2023-06-14T12:06:07;7.38;;;6.63;;
57720;SDS011;43562;43.064;0.160;2023-06-14T12:08:37;8.30;;;7.50;;
57720;SDS011;43562;43.064;0.160;2023-06-14T12:11:11;7.25;;;6.65;;
57720;SDS011;43562;43.064;0.160;2023-06-14T12:13:41;7.30;;;6.53;;
57720;SDS011;43562;43.064;0.160;2023-06-14T12:16:11;7.82;;;7.13;;
57720;SDS011;43562;43.064;0.160;2023-06-14T12:18:39;6.88;;;6.20;;
57720;SDS011;43562;43.064;0.160;2023-06-14T12:21:06;8.02;;;7.25;;
57720;SDS011;43562;43.064;0.160;2023-06-14T12:23:45;9.05;;;7.25;;
57720;SDS011;43562;43.064;0.160;2023-06-14T12:26:15;11.27;;;7.68;;
57720;SDS011;43562;43.064;0.160;2023-06-14T12:28:42;7.38;;;6.68;;
57720;SDS011;43562;43.064;0.160;2023-06-14T12:31:09;7.72;;;6.18;;
57720;SDS011;43562;43.064;0.160;2023-06-14T12:33:35;7.43;;;6.72;;
57720;SDS011;43562;43.064;0.160;2023-06-14T12:36:03;6.60;;;6.00;;
57720;SDS011;43562;43.064;0.160;2023-06-14T12:38:29;6.82;;;6.13;;
57720;SDS011;43562;43.064;0.160;2023-06-14T12:40:55;6.72;;;5.70;;
57720;SDS011;43562;43.064;0.160;2023-06-14T12:43:22;7.00;;;5.65;;
57720;SDS011;43562;43.064;0.160;2023-06-14T12:45:49;6.38;;;5.78;;
57720;SDS011;43562;43.064;0.160;2023-06-14T12:48:15;6.75;;;5.43;;
57720;SDS011;43562;43.064;0.160;2023-06-14T12:50:41;7.30;;;5.30;;
57720;SDS011;43562;43.064;0.160;2023-06-14T12:53:07;6.05;;;5.55;;
57720;SDS011;43562;43.064;0.160;2023-06-14T12:55:33;8.23;;;6.60;;
57720;SDS011;43562;43.064;0.160;2023-06-14T12:57:59;8.55;;;6.75;;
57720;SDS011;43562;43.064;0.160;2023-06-14T13:00:25;7.40;;;6.70;;
57720;SDS011;43562;43.064;0.160;2023-06-14T13:02:52;5.78;;;5.15;;
57720;SDS011;43562;43.064;0.160;2023-06-14T13:05:18;6.53;;;5.80;;
57720;SDS011;43562;43.064;0.160;2023-06-14T13:07:44;7.15;;;5.93;;
57720;SDS011;43562;43.064;0.160;2023-06-14T13:10:10;6.32;;;5.72;;
57720;SDS011;43562;43.064;0.160;2023-06-14T13:12:36;5.78;;;5.25;;
57720;SDS011;43562;43.064;0.160;2023-06-14T13:15:03;8.60;;;5.80;;
57720;SDS011;43562;43.064;0.160;2023-06-14T13:17:29;6.15;;;5.57;;
57720;SDS011;43562;43.064;0.160;2023-06-14T13:19:58;5.82;;;5.30;;
57720;SDS011;43562;43.064;0.160;2023-06-14T13:22:24;7.55;;;6.95;;
57720;SDS011;43562;43.064;0.160;2023-06-14T13:24:50;8.27;;;6.32;;
57720;SDS011;43562;43.064;0.160;2023-06-14T13:27:16;7.05;;;6.35;;
57720;SDS011;43562;43.064;0.160;2023-06-14T13:29:43;7.85;;;5.97;;
57720;SDS011;43562;43.064;0.160;2023-06-14T13:32:09;6.65;;;5.95;;
57720;SDS011;43562;43.064;0.160;2023-06-14T13:34:35;7.63;;;5.43;;
57720;SDS011;43562;43.064;0.160;2023-06-14T13:37:01;8.07;;;5.75;;
57720;SDS011;43562;43.064;0.160;2023-06-14T13:39:27;6.57;;;5.78;;
57720;SDS011;43562;43.064;0.160;2023-06-14T13:41:53;7.63;;;5.70;;
57720;SDS011;43562;43.064;0.160;2023-06-14T13:44:19;8.07;;;6.18;;
57720;SDS011;43562;43.064;0.160;2023-06-14T13:46:46;7.15;;;5.82;;
57720;SDS011;43562;43.064;0.160;2023-06-14T13:49:12;8.13;;;6.22;;
57720;SDS011;43562;43.064;0.160;2023-06-14T13:51:38;6.13;;;5.38;;
57720;SDS011;43562;43.064;0.160;2023-06-14T13:54:04;8.65;;;5.68;;
57720;SDS011;43562;43.064;0.160;2023-06-14T13:56:31;8.25;;;5.90;;
57720;SDS011;43562;43.064;0.160;2023-06-14T13:58:57;6.97;;;5.30;;
57720;SDS011;43562;43.064;0.160;2023-06-14T14:01:24;6.88;;;5.30;;
57720;SDS011;43562;43.064;0.160;2023-06-14T14:03:51;6.70;;;5.88;;
57720;SDS011;43562;43.064;0.160;2023-06-14T14:06:17;6.20;;;5.55;;
57720;SDS011;43562;43.064;0.160;2023-06-14T14:08:43;7.32;;;5.75;;
57720;SDS011;43562;43.064;0.160;2023-06-14T14:11:10;6.20;;;5.60;;
57720;SDS011;43562;43.064;0.160;2023-06-14T14:13:36;6.85;;;5.93;;
57720;SDS011;43562;43.064;0.160;2023-06-14T14:16:03;7.53;;;5.70;;
57720;SDS011;43562;43.064;0.160;2023-06-14T14:18:29;6.25;;;5.07;;
57720;SDS011;43562;43.064;0.160;2023-06-14T14:20:55;7.80;;;5.20;;
57720;SDS011;43562;43.064;0.160;2023-06-14T14:23:21;5.85;;;5.25;;
57720;SDS011;43562;43.064;0.160;2023-06-14T14:25:48;7.53;;;5.43;;
57720;SDS011;43562;43.064;0.160;2023-06-14T14:28:14;7.75;;;5.80;;
57720;SDS011;43562;43.064;0.160;2023-06-14T14:30:45;5.68;;;5.03;;
57720;SDS011;43562;43.064;0.160;2023-06-14T14:33:12;7.22;;;6.32;;
57720;SDS011;43562;43.064;0.160;2023-06-14T14:35:43;6.40;;;5.80;;
57720;SDS011;43562;43.064;0.160;2023-06-14T14:38:11;6.60;;;5.95;;
57720;SDS011;43562;43.064;0.160;2023-06-14T14:40:38;6.97;;;5.72;;
57720;SDS011;43562;43.064;0.160;2023-06-14T14:43:05;6.82;;;6.22;;
57720;SDS011;43562;43.064;0.160;2023-06-14T14:45:31;7.97;;;6.63;;
57720;SDS011;43562;43.064;0.160;2023-06-14T14:47:57;6.80;;;6.10;;
57720;SDS011;43562;43.064;0.160;2023-06-14T14:50:24;6.50;;;5.55;;
57720;SDS011;43562;43.064;0.160;2023-06-14T14:52:51;7.70;;;6.05;;
57720;SDS011;43562;43.064;0.160;2023-06-14T14:55:17;6.30;;;5.70;;
57720;SDS011;43562;43.064;0.160;2023-06-14T14:57:43;5.57;;;4.85;;
57720;SDS011;43562;43.064;0.160;2023-06-14T15:00:09;6.63;;;6.03;;
57720;SDS011;43562;43.064;0.160;2023-06-14T15:02:36;7.35;;;6.65;;